Other Surface Observations
Issued by NWS Great Falls, MT

Home | Current Version | Previous Version | Text Only | Print | Product List | Glossary On
Versions: 1 2 3 4 5 6 7 8 9 10 11 12 13 14 15 16 17 18 19 20 21 22 23 24 25 26 27 28 29 30 31 32 33 34 35 36 37 38 39 40 41 42 43 44 45 46 47 48 49 50
298
SXUS55 KTFX 011229
OSOTFX
AREA AWOS OBSERVATIONS
NATIONAL WEATHER SERVICE GREAT FALLS MT
0629 AM MDT SAT OCT 01 2016

METAR KPWD 011230Z AUTO 00000KT 10SM 09/08 A2998 RMK PLENTYWOOD
METAR KPO1 011230Z AUTO 03004KT 10SM 09/08 A2997 RMK POPLAR
METAR K1S3 011230Z AUTO 26003KT 10SM 11/11 A2996 RMK FORSYTH
METAR KS71 011230Z AUTO 10005KT 10SM 11/11 A2990 RMK CHINOOK
METAR K38S 011230Z AUTO 20006KT 10SM 12/06 A3000 RMK DEER LODGE
METAR K3U3 011230Z AUTO 19004KT 10SM 09/06 A3000 RMK ANACONDA
METAR K6S5 011230Z AUTO 13007KT 10SM 16/06 A2991 RMK HAMILTON
METAR KS59 011230Z AUTO 00000KT 10SM 10/09 A2988 RMK LIBBY
METAR K88M 011230Z AUTO 19003KT 10SM 09/08 A2989 RMK EUREKA



USA.gov is the U.S. government's official web portal to all federal, state and local government web resources and services.